createdAt,value
2018-06-27T00:00:27.135Z,14.10
2018-06-27T00:02:55.234Z,13.53
2018-06-27T00:05:23.585Z,12.77
2018-06-27T00:07:51.872Z,15.73
2018-06-27T00:10:20.168Z,11.63
2018-06-27T00:12:48.313Z,13.67
2018-06-27T00:15:16.737Z,13.80
2018-06-27T00:17:44.883Z,12.00
2018-06-27T00:20:13.016Z,13.33
2018-06-27T00:22:41.195Z,13.30
2018-06-27T00:25:09.292Z,12.70
2018-06-27T00:27:37.463Z,12.27
2018-06-27T00:30:05.577Z,11.40
2018-06-27T00:32:33.683Z,12.63
2018-06-27T00:35:01.793Z,11.43
2018-06-27T00:37:29.903Z,12.50
2018-06-27T00:39:58.138Z,13.33
2018-06-27T00:42:26.385Z,11.20
2018-06-27T00:44:54.502Z,11.03
2018-06-27T00:47:23.348Z,12.47
2018-06-27T00:49:51.459Z,11.00
2018-06-27T00:52:19.712Z,14.90
2018-06-27T00:54:47.822Z,10.63
2018-06-27T00:57:15.956Z,9.37
2018-06-27T00:59:44.052Z,11.87
2018-06-27T01:02:12.189Z,12.60
2018-06-27T01:04:40.359Z,10.47
2018-06-27T01:07:08.457Z,9.60
2018-06-27T01:09:36.624Z,9.27
2018-06-27T01:12:04.736Z,10.97
2018-06-27T01:14:32.804Z,9.43
2018-06-27T01:17:00.879Z,11.37
2018-06-27T01:19:28.976Z,7.80
2018-06-27T01:21:57.083Z,10.77
2018-06-27T01:24:25.464Z,9.13
2018-06-27T01:26:53.582Z,8.33
2018-06-27T01:29:21.705Z,11.30
2018-06-27T01:31:50.053Z,11.73
2018-06-27T01:34:18.383Z,8.67
2018-06-27T01:36:46.480Z,9.47
2018-06-27T01:39:14.604Z,8.80
2018-06-27T01:41:42.710Z,8.60
2018-06-27T01:44:10.845Z,9.47
2018-06-27T01:46:38.971Z,8.43
2018-06-27T01:49:07.080Z,10.27
2018-06-27T01:51:35.212Z,9.73
2018-06-27T01:54:03.326Z,9.60
2018-06-27T01:56:31.440Z,8.80
2018-06-27T01:58:59.546Z,8.40
2018-06-27T02:01:28.183Z,8.63
2018-06-27T02:03:56.343Z,13.37
2018-06-27T02:06:24.447Z,11.90
2018-06-27T02:08:52.527Z,9.07
2018-06-27T02:11:20.660Z,12.80
2018-06-27T02:13:48.859Z,9.70
2018-06-27T02:16:17.969Z,9.30
2018-06-27T02:18:46.088Z,10.90
2018-06-27T02:21:14.166Z,11.70
2018-06-27T02:23:42.267Z,8.93
2018-06-27T02:26:10.353Z,9.20
2018-06-27T02:28:38.448Z,11.80
2018-06-27T02:31:06.580Z,12.07
2018-06-27T02:33:34.673Z,16.23
2018-06-27T02:36:02.783Z,15.33
2018-06-27T02:38:31.641Z,8.53
2018-06-27T02:40:59.708Z,10.07
2018-06-27T02:43:27.811Z,10.00
2018-06-27T02:45:55.895Z,11.27
2018-06-27T02:48:24.012Z,12.37
2018-06-27T02:50:52.135Z,9.27
2018-06-27T02:53:20.288Z,14.13
2018-06-27T02:55:48.348Z,12.40
2018-06-27T02:58:16.511Z,11.47
2018-06-27T03:00:44.736Z,8.40
2018-06-27T03:03:12.817Z,10.77
2018-06-27T03:05:40.961Z,11.30
2018-06-27T03:08:09.061Z,19.00
2018-06-27T03:10:37.159Z,11.03
2018-06-27T03:13:05.312Z,16.30
2018-06-27T03:15:34.599Z,9.57
2018-06-27T03:18:02.745Z,10.70
2018-06-27T03:20:30.965Z,10.80
2018-06-27T03:22:59.004Z,9.23
2018-06-27T03:25:27.123Z,9.83
2018-06-27T03:27:55.208Z,9.87
2018-06-27T03:30:23.351Z,9.20
2018-06-27T03:32:51.520Z,9.53
2018-06-27T03:35:19.637Z,11.03
2018-06-27T03:37:47.721Z,10.70
2018-06-27T03:40:15.793Z,9.50
2018-06-27T03:42:44.747Z,10.27
2018-06-27T03:45:12.824Z,10.77
2018-06-27T03:47:41.087Z,9.60
2018-06-27T03:50:09.192Z,12.37
2018-06-27T03:52:41.759Z,9.83
2018-06-27T03:55:09.897Z,10.90
2018-06-27T03:57:38.003Z,13.47
2018-06-27T04:00:06.151Z,8.97
2018-06-27T04:02:34.270Z,10.27
2018-06-27T04:05:02.401Z,12.60
2018-06-27T04:07:30.668Z,8.57
2018-06-27T04:09:58.792Z,11.03
2018-06-27T04:12:26.886Z,9.13
2018-06-27T04:14:55.055Z,7.50
2018-06-27T04:17:23.146Z,8.47
2018-06-27T04:19:51.462Z,8.33
2018-06-27T04:22:24.830Z,12.97
2018-06-27T04:24:53.031Z,7.70
2018-06-27T04:27:21.103Z,9.33
2018-06-27T04:29:49.182Z,8.10
2018-06-27T04:32:17.271Z,9.73
2018-06-27T04:34:45.512Z,10.23
2018-06-27T04:37:13.682Z,10.20
2018-06-27T04:39:41.856Z,9.77
2018-06-27T04:42:09.980Z,9.43
2018-06-27T04:44:38.251Z,9.17
2018-06-27T04:47:06.395Z,29.17
2018-06-27T04:49:34.535Z,19.00
2018-06-27T04:52:02.640Z,6.20
2018-06-27T04:54:30.772Z,7.60
2018-06-27T04:56:58.918Z,9.97
2018-06-27T04:59:27.019Z,6.07
2018-06-27T05:01:55.339Z,7.67
2018-06-27T05:04:23.604Z,6.07
2018-06-27T05:06:51.693Z,6.43
2018-06-27T05:09:19.788Z,7.80
2018-06-27T05:11:47.922Z,6.17
2018-06-27T05:14:16.017Z,6.27
2018-06-27T05:16:44.274Z,6.37
2018-06-27T05:19:12.643Z,7.70
2018-06-27T05:21:40.971Z,8.67
2018-06-27T05:24:09.022Z,9.83
2018-06-27T05:26:37.167Z,7.07
2018-06-27T05:29:05.516Z,7.23
2018-06-27T05:31:33.669Z,9.47
2018-06-27T05:34:01.993Z,8.87
2018-06-27T05:36:36.614Z,8.70
2018-06-27T05:39:07.237Z,7.53
2018-06-27T05:41:35.307Z,7.57
2018-06-27T05:44:03.436Z,6.77
2018-06-27T05:46:31.583Z,6.13
2018-06-27T05:48:59.660Z,6.10
2018-06-27T05:51:27.828Z,6.93
2018-06-27T05:53:55.979Z,7.50
2018-06-27T05:56:30.572Z,8.87
2018-06-27T05:58:58.692Z,6.27
2018-06-27T06:01:26.811Z,7.23
2018-06-27T06:03:54.940Z,7.00
2018-06-27T06:06:23.146Z,7.47
2018-06-27T06:08:51.401Z,9.37
2018-06-27T06:11:19.544Z,7.13
2018-06-27T06:13:47.750Z,7.80
2018-06-27T06:16:15.849Z,6.80
2018-06-27T06:18:44.073Z,5.43
2018-06-27T06:21:12.260Z,6.63
2018-06-27T06:23:40.380Z,5.33
2018-06-27T06:26:08.755Z,5.97
2018-06-27T06:28:37.001Z,8.70
2018-06-27T06:31:05.089Z,6.07
2018-06-27T06:33:33.236Z,9.63
2018-06-27T06:36:01.410Z,6.20
2018-06-27T06:38:29.560Z,8.63
2018-06-27T06:40:57.953Z,7.07
2018-06-27T06:43:26.134Z,8.23
2018-06-27T06:45:54.316Z,10.17
2018-06-27T06:48:22.490Z,8.20
2018-06-27T06:50:50.771Z,8.20
2018-06-27T06:53:18.938Z,10.17
2018-06-27T06:55:47.024Z,8.17
2018-06-27T06:58:15.303Z,6.97
2018-06-27T07:00:43.479Z,5.90
2018-06-27T07:03:11.654Z,5.47
2018-06-27T07:05:39.810Z,6.57
2018-06-27T07:08:07.974Z,5.43
2018-06-27T07:10:36.269Z,7.13
2018-06-27T07:13:04.437Z,11.73
2018-06-27T07:15:32.613Z,6.03
2018-06-27T07:18:00.762Z,6.03
2018-06-27T07:20:28.868Z,6.53
2018-06-27T07:22:57.148Z,9.27
2018-06-27T07:25:25.308Z,9.83
2018-06-27T07:27:53.483Z,7.47
2018-06-27T07:30:21.735Z,8.07
2018-06-27T07:32:49.823Z,8.93
2018-06-27T07:35:18.027Z,7.47
2018-06-27T07:37:46.140Z,6.87
2018-06-27T07:40:14.227Z,9.90
2018-06-27T07:42:42.421Z,5.73
2018-06-27T07:45:10.557Z,5.13
2018-06-27T07:47:38.676Z,5.67
2018-06-27T07:50:06.808Z,3.87
2018-06-27T07:52:34.916Z,7.40
2018-06-27T07:55:03.221Z,6.20
2018-06-27T07:57:31.279Z,4.77
2018-06-27T07:59:59.432Z,5.00
2018-06-27T08:02:27.522Z,5.17
2018-06-27T08:04:55.624Z,4.00
2018-06-27T08:07:23.752Z,7.83
2018-06-27T08:09:51.848Z,5.50
2018-06-27T08:12:20.029Z,6.30
2018-06-27T08:14:48.086Z,6.00
2018-06-27T08:17:16.300Z,9.00
2018-06-27T08:19:44.457Z,5.97
2018-06-27T08:22:12.588Z,6.40
2018-06-27T08:24:40.705Z,6.97
2018-06-27T08:27:08.816Z,8.33
2018-06-27T08:29:37.270Z,5.87
2018-06-27T08:32:05.385Z,8.47
2018-06-27T08:34:33.500Z,7.00
2018-06-27T08:37:01.648Z,7.23
2018-06-27T08:39:29.769Z,6.07
2018-06-27T08:41:57.874Z,8.53
2018-06-27T08:44:26.093Z,6.97
2018-06-27T08:46:54.201Z,7.70
2018-06-27T08:49:22.515Z,5.43
2018-06-27T08:51:51.416Z,7.90
2018-06-27T08:54:19.564Z,7.97
2018-06-27T08:56:48.073Z,6.00
2018-06-27T08:59:16.284Z,7.53
2018-06-27T09:01:44.506Z,8.43
2018-06-27T09:04:12.669Z,7.53
2018-06-27T09:06:40.828Z,4.63
2018-06-27T09:09:11.092Z,5.37
2018-06-27T09:11:39.217Z,6.30
2018-06-27T09:14:07.481Z,4.80
2018-06-27T09:16:35.608Z,5.57
2018-06-27T09:19:03.792Z,6.43
2018-06-27T09:21:31.906Z,5.57
2018-06-27T09:24:00.222Z,6.07
2018-06-27T09:26:28.455Z,5.30
2018-06-27T09:28:56.613Z,5.33
2018-06-27T09:31:24.761Z,5.30
2018-06-27T09:33:53.153Z,6.73
2018-06-27T09:36:21.413Z,5.30
2018-06-27T09:38:49.576Z,5.70
2018-06-27T09:41:17.693Z,6.33
2018-06-27T09:43:45.786Z,4.17
2018-06-27T09:46:13.919Z,6.43
2018-06-27T09:48:42.066Z,5.73
2018-06-27T09:51:10.184Z,4.40
2018-06-27T09:53:38.321Z,6.43
2018-06-27T09:56:06.575Z,5.57
2018-06-27T09:58:34.670Z,5.87
2018-06-27T10:01:03.024Z,5.80
2018-06-27T10:03:31.131Z,7.70
2018-06-27T10:05:59.261Z,7.27
2018-06-27T10:08:28.512Z,4.73
2018-06-27T10:10:56.691Z,5.93
2018-06-27T10:13:24.854Z,8.43
2018-06-27T10:15:52.931Z,5.37
2018-06-27T10:18:21.106Z,5.90
2018-06-27T10:20:49.258Z,5.20
2018-06-27T10:23:17.378Z,6.47
2018-06-27T10:25:45.517Z,7.13
2018-06-27T10:28:13.652Z,9.20
2018-06-27T10:30:41.809Z,6.17
2018-06-27T10:33:09.925Z,6.17
2018-06-27T10:35:38.163Z,7.17
2018-06-27T10:38:06.356Z,9.40
2018-06-27T10:40:34.560Z,7.47
2018-06-27T10:43:02.726Z,9.93
2018-06-27T10:45:30.861Z,8.03
2018-06-27T10:47:59.082Z,10.00
2018-06-27T10:50:27.598Z,7.70
2018-06-27T10:52:56.088Z,7.17
2018-06-27T10:55:25.260Z,5.77
2018-06-27T10:57:53.563Z,9.17
2018-06-27T11:00:21.768Z,6.97
2018-06-27T11:02:49.963Z,5.73
2018-06-27T11:05:18.107Z,5.20
2018-06-27T11:07:46.275Z,6.13
2018-06-27T11:10:14.542Z,5.53
2018-06-27T11:12:42.713Z,6.47
2018-06-27T11:15:10.958Z,4.43
2018-06-27T11:17:39.181Z,5.83
2018-06-27T11:20:08.316Z,6.10
2018-06-27T11:22:36.458Z,5.73
2018-06-27T11:25:04.628Z,7.43
2018-06-27T11:27:32.772Z,9.77
2018-06-27T11:30:00.968Z,5.17
2018-06-27T11:32:29.103Z,7.40
2018-06-27T11:34:57.221Z,6.90
2018-06-27T11:37:25.291Z,5.67
2018-06-27T11:39:53.420Z,7.40
2018-06-27T11:42:21.553Z,5.87
2018-06-27T11:44:49.758Z,5.83
2018-06-27T11:47:17.981Z,3.60
2018-06-27T11:49:46.172Z,6.47
2018-06-27T11:52:14.292Z,4.63
2018-06-27T11:54:42.428Z,4.23
2018-06-27T11:57:10.960Z,3.63
2018-06-27T11:59:39.136Z,3.80
2018-06-27T12:02:07.287Z,4.30
2018-06-27T12:04:35.452Z,2.23
2018-06-27T12:07:03.581Z,3.40
2018-06-27T12:09:31.715Z,3.67
2018-06-27T12:11:59.868Z,2.47
2018-06-27T12:14:28.006Z,4.03
2018-06-27T12:16:56.220Z,2.07
2018-06-27T12:19:24.275Z,4.63
2018-06-27T12:21:52.520Z,3.90
2018-06-27T12:24:20.706Z,2.90
2018-06-27T12:26:49.581Z,2.33
2018-06-27T12:29:17.694Z,3.00
2018-06-27T12:31:45.976Z,2.40
2018-06-27T12:34:14.355Z,1.70
2018-06-27T12:36:42.549Z,1.73
2018-06-27T12:39:10.734Z,1.53
2018-06-27T12:41:38.903Z,2.00
2018-06-27T12:44:07.060Z,2.37
2018-06-27T12:46:35.496Z,2.47
2018-06-27T12:49:04.200Z,3.70
2018-06-27T12:51:32.341Z,3.53
2018-06-27T12:54:00.535Z,2.30
2018-06-27T12:56:28.938Z,2.20
2018-06-27T12:58:57.100Z,5.40
2018-06-27T13:01:25.281Z,2.23
2018-06-27T13:03:53.412Z,5.40
2018-06-27T13:06:21.584Z,1.70
2018-06-27T13:08:50.187Z,2.13
2018-06-27T13:11:18.512Z,1.70
2018-06-27T13:13:46.656Z,2.17
2018-06-27T13:16:14.806Z,4.70
2018-06-27T13:18:42.964Z,1.10
2018-06-27T13:21:11.122Z,1.40
2018-06-27T13:23:39.219Z,2.70
2018-06-27T13:26:07.402Z,2.70
2018-06-27T13:28:35.613Z,2.13
2018-06-27T13:31:03.729Z,3.07
2018-06-27T13:33:31.844Z,2.10
2018-06-27T13:36:00.030Z,2.20
2018-06-27T13:38:28.161Z,1.67
2018-06-27T13:40:56.385Z,1.73
2018-06-27T13:43:24.610Z,2.67
2018-06-27T13:45:52.747Z,1.47
2018-06-27T13:48:21.535Z,2.13
2018-06-27T13:50:49.655Z,6.37
2018-06-27T13:53:17.870Z,2.47
2018-06-27T13:55:46.036Z,1.30
2018-06-27T13:58:14.176Z,1.60
2018-06-27T14:00:42.364Z,2.17
2018-06-27T14:03:10.523Z,1.30
2018-06-27T14:05:38.649Z,2.93
2018-06-27T14:08:06.848Z,2.57
2018-06-27T14:10:34.984Z,1.07
2018-06-27T14:13:03.116Z,1.37
2018-06-27T14:15:31.242Z,3.43
2018-06-27T14:17:59.388Z,2.17
2018-06-27T14:20:27.503Z,1.07
2018-06-27T14:22:55.737Z,1.00
2018-06-27T14:25:23.904Z,1.40
2018-06-27T14:27:52.520Z,1.37
2018-06-27T14:30:20.671Z,3.60
2018-06-27T14:32:48.898Z,1.33
2018-06-27T14:35:16.999Z,1.50
2018-06-27T14:37:45.222Z,2.93
2018-06-27T14:40:13.352Z,5.43
2018-06-27T14:42:41.492Z,1.53
2018-06-27T14:45:09.641Z,1.37
2018-06-27T14:47:37.755Z,1.40
2018-06-27T14:50:05.941Z,3.10
2018-06-27T14:52:34.036Z,14.63
2018-06-27T14:55:02.188Z,1.30
2018-06-27T14:57:30.348Z,1.13
2018-06-27T14:59:58.540Z,1.50
2018-06-27T15:02:26.679Z,1.00
2018-06-27T15:04:54.885Z,3.10
2018-06-27T15:07:22.954Z,2.60
2018-06-27T15:09:51.235Z,1.00
2018-06-27T15:12:19.392Z,1.00
2018-06-27T15:14:47.491Z,1.20
2018-06-27T15:17:15.681Z,1.10
2018-06-27T15:19:43.871Z,2.50
2018-06-27T15:22:12.099Z,1.50
2018-06-27T15:24:40.287Z,1.17
2018-06-27T15:27:08.727Z,2.40
2018-06-27T15:29:36.921Z,1.40
2018-06-27T15:32:05.016Z,1.73
2018-06-27T15:34:33.217Z,1.63
2018-06-27T15:37:01.342Z,1.30
2018-06-27T15:39:29.471Z,1.43
2018-06-27T15:41:57.576Z,1.57
2018-06-27T15:44:26.424Z,4.00
2018-06-27T15:46:54.600Z,4.60
2018-06-27T15:49:22.785Z,1.80
2018-06-27T15:51:50.917Z,2.00
2018-06-27T15:54:19.033Z,9.37
2018-06-27T15:56:47.184Z,5.80
2018-06-27T15:59:15.568Z,8.30
2018-06-27T16:01:43.706Z,3.33
2018-06-27T16:04:12.248Z,4.93
2018-06-27T16:06:40.395Z,4.17
2018-06-27T16:09:09.507Z,4.70
2018-06-27T16:11:38.056Z,4.40
2018-06-27T16:14:06.185Z,2.67
2018-06-27T16:16:34.522Z,4.03
2018-06-27T16:19:02.766Z,5.47
2018-06-27T16:21:30.982Z,6.10
2018-06-27T16:23:59.086Z,3.57
2018-06-27T16:26:27.829Z,3.13
2018-06-27T16:28:55.988Z,2.90
2018-06-27T16:31:24.136Z,4.73
2018-06-27T16:33:52.326Z,2.17
2018-06-27T16:36:20.499Z,2.50
2018-06-27T16:38:48.698Z,2.77
2018-06-27T16:41:16.801Z,1.87
2018-06-27T16:43:45.030Z,10.63
2018-06-27T16:46:13.198Z,3.30
2018-06-27T16:48:41.380Z,3.70
2018-06-27T16:51:09.683Z,3.87
2018-06-27T16:53:37.693Z,5.47
2018-06-27T16:56:05.866Z,2.13
2018-06-27T16:58:34.166Z,4.27
2018-06-27T17:01:02.409Z,2.97
2018-06-27T17:03:30.528Z,3.73
2018-06-27T17:05:58.695Z,3.40
2018-06-27T17:08:26.924Z,2.90
2018-06-27T17:10:55.053Z,3.20
2018-06-27T17:13:23.237Z,5.67
2018-06-27T17:15:51.480Z,2.50
2018-06-27T17:18:19.687Z,2.70
2018-06-27T17:20:47.853Z,4.13
2018-06-27T17:23:15.970Z,2.87
2018-06-27T17:25:44.182Z,3.17
2018-06-27T17:28:12.326Z,2.17
2018-06-27T17:30:40.511Z,5.53
2018-06-27T17:33:08.824Z,3.10
2018-06-27T17:35:37.750Z,4.20
2018-06-27T17:38:05.979Z,6.80
2018-06-27T17:40:34.177Z,1.77
2018-06-27T17:43:02.336Z,3.87
2018-06-27T17:45:30.551Z,4.23
2018-06-27T17:47:58.712Z,2.60
2018-06-27T17:50:26.869Z,2.10
2018-06-27T17:52:55.257Z,3.23
2018-06-27T17:55:23.482Z,3.23
2018-06-27T17:57:51.796Z,1.93
2018-06-27T18:00:20.058Z,1.60
2018-06-27T18:02:48.340Z,4.00
2018-06-27T18:05:16.642Z,5.80
2018-06-27T18:07:44.828Z,3.47
2018-06-27T18:10:13.115Z,2.60
2018-06-27T18:12:41.307Z,2.07
2018-06-27T18:15:09.541Z,2.53
2018-06-27T18:17:37.724Z,6.53
2018-06-27T18:20:06.720Z,1.70
2018-06-27T18:22:34.924Z,3.00
2018-06-27T18:25:03.384Z,6.13
2018-06-27T18:27:31.760Z,8.47
2018-06-27T18:30:00.117Z,3.13
2018-06-27T18:32:28.449Z,2.57
2018-06-27T18:34:56.710Z,6.53
2018-06-27T18:37:24.955Z,6.53
2018-06-27T18:39:53.322Z,2.80
2018-06-27T18:42:21.596Z,5.47
2018-06-27T18:44:50.038Z,2.90
2018-06-27T18:47:18.305Z,3.47
2018-06-27T18:49:46.576Z,1.60
2018-06-27T18:52:14.883Z,5.70
2018-06-27T18:54:43.176Z,3.53
2018-06-27T18:57:11.373Z,3.17
2018-06-27T18:59:39.598Z,8.97
2018-06-27T19:02:07.954Z,2.10
2018-06-27T19:04:36.312Z,3.03
2018-06-27T19:07:04.706Z,2.03
2018-06-27T19:09:32.938Z,4.63
2018-06-27T19:12:01.184Z,4.33
2018-06-27T19:14:29.433Z,5.07
2018-06-27T19:16:57.581Z,2.53
2018-06-27T19:19:25.957Z,2.93
2018-06-27T19:21:54.307Z,1.70
2018-06-27T19:24:22.511Z,3.20
2018-06-27T19:26:50.824Z,1.80
2018-06-27T19:29:19.284Z,2.17
2018-06-27T19:31:47.538Z,1.83
2018-06-27T19:34:15.860Z,1.70
2018-06-27T19:36:44.387Z,10.57
2018-06-27T19:39:13.507Z,15.33
2018-06-27T19:41:41.839Z,2.97
2018-06-27T19:44:10.573Z,2.50
2018-06-27T19:46:38.831Z,4.37
2018-06-27T19:49:07.316Z,3.73
2018-06-27T19:51:35.732Z,2.87
2018-06-27T19:54:04.158Z,2.77
2018-06-27T19:56:32.601Z,2.47
2018-06-27T19:59:00.847Z,3.60
2018-06-27T20:01:29.347Z,3.87
2018-06-27T20:03:57.804Z,3.63
2018-06-27T20:06:26.213Z,4.20
2018-06-27T20:08:54.473Z,6.43
2018-06-27T20:11:23.041Z,2.67
2018-06-27T20:13:51.306Z,4.60
2018-06-27T20:16:19.602Z,2.40
2018-06-27T20:18:47.769Z,2.30
2018-06-27T20:21:16.126Z,2.40
2018-06-27T20:23:44.409Z,6.33
2018-06-27T20:26:12.652Z,4.03
2018-06-27T20:28:40.921Z,5.40
2018-06-27T20:31:09.202Z,2.20
2018-06-27T20:33:38.426Z,2.20
2018-06-27T20:36:07.445Z,2.67
2018-06-27T20:38:35.693Z,5.03
2018-06-27T20:41:04.751Z,4.17
2018-06-27T20:43:33.179Z,2.67
2018-06-27T20:46:01.440Z,19.90
2018-06-27T20:48:29.767Z,12.90
2018-06-27T20:50:58.241Z,3.40
2018-06-27T20:53:26.457Z,1.80
2018-06-27T20:55:54.758Z,7.60
2018-06-27T20:58:23.185Z,3.83
2018-06-27T21:00:51.416Z,1.80
2018-06-27T21:03:19.713Z,2.10
2018-06-27T21:05:48.128Z,1.77
2018-06-27T21:08:16.419Z,2.37
2018-06-27T21:10:44.710Z,1.70
2018-06-27T21:13:13.259Z,1.80
2018-06-27T21:15:41.804Z,2.30
2018-06-27T21:18:10.025Z,6.20
2018-06-27T21:20:38.281Z,2.13
2018-06-27T21:23:07.022Z,2.17
2018-06-27T21:25:37.016Z,2.53
2018-06-27T21:28:05.224Z,2.50
2018-06-27T21:30:33.461Z,3.77
2018-06-27T21:33:01.638Z,2.60
2018-06-27T21:35:29.936Z,2.10
2018-06-27T21:37:58.051Z,2.77
2018-06-27T21:40:26.488Z,2.03
2018-06-27T21:42:54.950Z,2.10
2018-06-27T21:45:23.156Z,2.30
2018-06-27T21:47:52.293Z,2.10
2018-06-27T21:50:20.512Z,3.00
2018-06-27T21:52:48.765Z,2.00
2018-06-27T21:55:17.246Z,2.17
2018-06-27T21:57:45.518Z,2.50
2018-06-27T22:00:14.227Z,2.60
2018-06-27T22:02:42.873Z,3.13
2018-06-27T22:05:11.071Z,2.30
2018-06-27T22:07:39.285Z,2.70
2018-06-27T22:10:07.766Z,2.20
2018-06-27T22:12:36.115Z,4.67
2018-06-27T22:15:04.759Z,4.43
2018-06-27T22:17:32.999Z,3.50
2018-06-27T22:20:01.333Z,3.40
2018-06-27T22:22:29.512Z,2.90
2018-06-27T22:24:57.692Z,2.40
2018-06-27T22:27:25.896Z,3.07
2018-06-27T22:29:55.335Z,2.33
2018-06-27T22:32:23.692Z,3.97
2018-06-27T22:34:51.895Z,3.40
2018-06-27T22:37:20.288Z,2.80
2018-06-27T22:39:48.551Z,3.10
2018-06-27T22:42:16.730Z,3.87
2018-06-27T22:44:44.897Z,3.57
2018-06-27T22:47:13.076Z,3.10
2018-06-27T22:49:41.412Z,3.37
2018-06-27T22:52:09.676Z,2.50
2018-06-27T22:54:37.852Z,3.03
2018-06-27T22:57:06.068Z,3.67
2018-06-27T22:59:34.178Z,7.03
2018-06-27T23:02:02.396Z,22.23
2018-06-27T23:04:30.640Z,11.20
2018-06-27T23:06:58.973Z,9.77
2018-06-27T23:09:27.202Z,4.50
2018-06-27T23:11:55.399Z,3.60
2018-06-27T23:14:23.633Z,4.77
2018-06-27T23:16:51.800Z,3.80
2018-06-27T23:19:19.944Z,7.87
2018-06-27T23:21:48.077Z,5.30
2018-06-27T23:24:16.296Z,5.37
2018-06-27T23:26:44.417Z,3.43
2018-06-27T23:29:12.585Z,3.43
2018-06-27T23:31:40.818Z,3.93
2018-06-27T23:34:09.050Z,4.43
2018-06-27T23:36:37.146Z,4.47
2018-06-27T23:39:07.420Z,6.10
2018-06-27T23:41:35.608Z,13.00
2018-06-27T23:44:03.795Z,8.30
2018-06-27T23:46:32.228Z,6.70
2018-06-27T23:49:00.727Z,5.80
2018-06-27T23:51:28.821Z,4.60
2018-06-27T23:53:57.139Z,4.33
2018-06-27T23:56:25.282Z,6.27
2018-06-27T23:58:54.010Z,7.03
